Time;durP1;ratioP1;P1;durP2;ratioP2;P2;SDS_P1;SDS_P2;PMS_P1;PMS_P2;Temp;Humidity;BMP_temperature;BMP_pressure;BME280_temperature;BME280_humidity;BME280_pressure;Samples;Min_cycle;Max_cycle;Signal;HPM_P1;HPM_P2
2023/10/26 00:01:17;;;;;;;0.45;0.45;;;;;;;10.94;93.94;95322.72;5027588;28;20442;-72
2023/10/26 00:03:45;;;;;;;0.22;0.22;;;;;;;10.99;93.96;95323.59;5030535;28;20132;-73
2023/10/26 00:06:13;;;;;;;0.28;0.28;;;;;;;10.94;93.76;95326.19;5029592;28;20053;-72
2023/10/26 00:08:41;;;;;;;0.30;0.30;;;;;;;10.99;94.04;95323.59;5032174;28;20049;-72
2023/10/26 00:11:09;;;;;;;0.20;0.20;;;;;;;10.96;93.94;95331.28;5027185;28;20053;-73
2023/10/26 00:13:37;;;;;;;0.25;0.25;;;;;;;10.94;94.34;95331.53;5027984;28;20389;-73
2023/10/26 00:16:05;;;;;;;0.30;0.30;;;;;;;10.90;94.80;95327.75;5027798;28;20045;-73
2023/10/26 00:18:34;;;;;;;0.20;0.20;;;;;;;10.93;94.68;95331.78;5025350;28;20073;-73
2023/10/26 00:21:02;;;;;;;0.20;0.20;;;;;;;10.94;94.34;95330.72;5031974;28;20400;-73
2023/10/26 00:23:30;;;;;;;0.30;0.30;;;;;;;10.92;94.77;95330.97;5027932;28;20048;-73
2023/10/26 00:25:58;;;;;;;0.17;0.17;;;;;;;10.91;94.49;95340.03;5032205;28;20493;-73
2023/10/26 00:28:26;;;;;;;0.40;0.30;;;;;;;10.92;94.50;95341.66;5030729;28;20037;-73
2023/10/26 00:30:54;;;;;;;0.30;0.30;;;;;;;10.98;94.23;95346.00;5030340;28;20152;-73
2023/10/26 00:33:24;;;;;;;0.20;0.20;;;;;;;11.00;94.09;95341.19;5029146;28;20076;-74
2023/10/26 00:35:54;;;;;;;0.22;0.22;;;;;;;10.95;94.23;95343.00;5031582;28;20103;-72
2023/10/26 00:38:22;;;;;;;0.17;0.17;;;;;;;10.95;93.96;95348.34;5012161;28;20050;-73
2023/10/26 00:40:49;;;;;;;0.20;0.20;;;;;;;10.95;94.49;95351.03;5031309;28;20044;-72
2023/10/26 00:43:21;;;;;;;0.20;0.20;;;;;;;10.93;94.12;95351.28;5029968;28;20038;-72
2023/10/26 00:45:51;;;;;;;0.20;0.20;;;;;;;10.88;94.24;95351.22;5028439;28;20104;-73
2023/10/26 00:48:19;;;;;;;0.20;0.20;;;;;;;10.92;93.99;95360.34;5027565;28;20116;-72
2023/10/26 00:50:47;;;;;;;0.20;0.20;;;;;;;10.89;94.36;95366.19;5011067;28;20053;-71
2023/10/26 00:53:17;;;;;;;0.20;0.20;;;;;;;10.83;95.01;95364.50;5027738;28;20037;-71
2023/10/26 00:55:47;;;;;;;0.20;0.20;;;;;;;10.90;94.58;95364.31;5030554;28;20060;-71
2023/10/26 00:58:18;;;;;;;0.38;0.30;;;;;;;10.88;94.08;95371.78;5029149;28;20121;-71
2023/10/26 01:00:46;;;;;;;0.22;0.22;;;;;;;10.88;93.79;95363.78;5029928;28;20443;-72
2023/10/26 01:03:14;;;;;;;0.20;0.20;;;;;;;10.91;93.05;95371.25;5009088;28;20073;-71
2023/10/26 01:05:42;;;;;;;0.68;0.68;;;;;;;10.91;90.74;95366.72;5028324;28;20940;-72
2023/10/26 01:08:09;;;;;;;0.20;0.20;;;;;;;10.96;87.99;95364.13;5027187;28;20107;-71
2023/10/26 01:10:39;;;;;;;0.30;0.30;;;;;;;10.96;87.50;95364.13;5030623;28;20135;-72
2023/10/26 01:13:07;;;;;;;0.25;0.25;;;;;;;10.90;86.57;95367.78;5010789;28;20045;-71
2023/10/26 01:15:35;;;;;;;0.15;0.15;;;;;;;10.85;85.89;95374.94;5028021;28;20037;-71
2023/10/26 01:18:03;;;;;;;0.10;0.10;;;;;;;10.82;86.35;95370.91;5009161;28;20065;-71
2023/10/26 01:20:31;;;;;;;0.30;0.30;;;;;;;10.83;86.05;95377.03;5011470;28;20042;-71
2023/10/26 01:23:01;;;;;;;0.30;0.30;;;;;;;10.78;86.29;95377.00;5027105;28;20056;-71
2023/10/26 01:25:29;;;;;;;0.20;0.20;;;;;;;10.73;86.91;95374.28;5035106;28;20512;-72
2023/10/26 01:27:57;;;;;;;0.30;0.30;;;;;;;10.79;85.95;95378.63;5035435;28;20445;-72
2023/10/26 01:30:26;;;;;;;0.10;0.10;;;;;;;10.77;85.71;95378.88;5012973;28;20556;-70
2023/10/26 01:32:56;;;;;;;0.20;0.20;;;;;;;10.78;84.62;95375.16;5034047;28;20084;-71
2023/10/26 01:35:25;;;;;;;0.13;0.13;;;;;;;10.77;85.30;95375.41;5029380;28;20033;-71
2023/10/26 01:37:55;;;;;;;0.30;0.30;;;;;;;10.77;85.45;95378.06;5028071;28;20091;-71
2023/10/26 01:40:25;;;;;;;0.20;0.20;;;;;;;10.75;84.90;95359.63;5024841;28;20071;-71
2023/10/26 01:42:52;;;;;;;0.20;0.20;;;;;;;10.76;84.38;95365.78;5030437;28;20057;-71
2023/10/26 01:45:23;;;;;;;0.20;0.20;;;;;;;10.78;84.47;95361.81;5026770;28;20041;-71
2023/10/26 01:47:51;;;;;;;0.22;0.22;;;;;;;10.77;83.84;95357.53;5031399;28;20049;-74
2023/10/26 01:50:19;;;;;;;0.28;0.28;;;;;;;10.77;83.77;95362.06;5030999;28;20062;-72
2023/10/26 01:52:47;;;;;;;0.20;0.20;;;;;;;10.78;83.55;95369.00;5030048;28;20524;-72
2023/10/26 01:55:15;;;;;;;0.13;0.13;;;;;;;10.77;82.64;95359.38;5028465;28;20656;-71
2023/10/26 01:57:45;;;;;;;0.20;0.20;;;;;;;10.79;81.96;95368.75;5027751;28;20057;-74
2023/10/26 02:00:14;;;;;;;0.30;0.30;;;;;;;10.80;81.86;95367.66;5008249;28;20056;-72
2023/10/26 02:02:47;;;;;;;0.20;0.20;;;;;;;10.78;81.92;95367.13;5007367;28;20052;-70
2023/10/26 02:05:15;;;;;;;0.22;0.22;;;;;;;10.78;81.62;95361.81;5008498;28;20047;-71
2023/10/26 02:07:43;;;;;;;0.20;0.20;;;;;;;10.78;81.67;95363.66;5025930;28;20073;-72
2023/10/26 02:10:14;;;;;;;0.25;0.25;;;;;;;10.78;81.47;95364.47;5028706;28;20244;-71
2023/10/26 02:12:42;;;;;;;0.20;0.20;;;;;;;10.75;82.03;95372.16;5026003;28;20037;-71
2023/10/26 02:15:12;;;;;;;0.30;0.30;;;;;;;10.73;81.33;95361.75;5020056;28;20077;-73
2023/10/26 02:17:40;;;;;;;0.20;0.20;;;;;;;10.71;81.47;95371.03;5029307;28;20073;-73
2023/10/26 02:20:08;;;;;;;0.40;0.40;;;;;;;10.71;80.73;95371.84;5022814;28;20413;-73
2023/10/26 02:22:36;;;;;;;0.20;0.20;;;;;;;10.70;81.30;95378.22;5029543;28;20041;-72
2023/10/26 02:25:05;;;;;;;0.20;0.20;;;;;;;10.66;81.60;95382.47;5027131;28;20060;-73
2023/10/26 02:27:33;;;;;;;0.20;0.20;;;;;;;10.61;81.39;95391.22;5007677;28;20059;-73
2023/10/26 02:30:02;;;;;;;0.20;0.20;;;;;;;10.60;81.07;95392.25;5026760;28;20049;-72
2023/10/26 02:32:31;;;;;;;0.10;0.10;;;;;;;10.59;80.37;95384.50;5028520;28;20527;-72
2023/10/26 02:34:59;;;;;;;0.20;0.20;;;;;;;10.58;81.01;95406.94;5027734;28;20132;-72
2023/10/26 02:37:27;;;;;;;0.28;0.28;;;;;;;10.58;81.31;95405.06;5014997;28;20045;-71
2023/10/26 02:39:55;;;;;;;0.20;0.20;;;;;;;10.57;80.73;95407.97;5026980;28;20160;-72
2023/10/26 02:42:23;;;;;;;0.30;0.30;;;;;;;10.51;80.60;95417.75;5027792;28;20075;-73
2023/10/26 02:44:52;;;;;;;0.30;0.30;;;;;;;10.49;80.40;95411.06;5018218;28;20072;-73
2023/10/26 02:47:20;;;;;;;0.30;0.30;;;;;;;10.46;80.71;95416.91;5027372;28;20045;-74
2023/10/26 02:49:49;;;;;;;0.20;0.20;;;;;;;10.46;80.72;95416.91;5030919;28;20037;-73
2023/10/26 02:52:17;;;;;;;0.28;0.28;;;;;;;10.45;80.77;95408.09;5028686;28;20473;-73
2023/10/26 02:54:46;;;;;;;0.40;0.40;;;;;;;10.44;81.12;95419.81;5026968;28;20077;-73
2023/10/26 02:57:14;;;;;;;0.20;0.20;;;;;;;10.44;80.93;95424.34;5022061;28;20112;-73
2023/10/26 02:59:42;;;;;;;0.20;0.20;;;;;;;10.40;81.21;95425.88;5026739;28;20480;-73
2023/10/26 03:02:10;;;;;;;0.30;0.30;;;;;;;10.39;80.94;95422.41;5027095;28;20366;-73
2023/10/26 03:04:38;;;;;;;0.25;0.25;;;;;;;10.37;81.32;95424.53;5027541;28;20143;-73
2023/10/26 03:07:07;;;;;;;0.40;0.40;;;;;;;10.36;81.45;95422.13;5009797;28;20185;-73
2023/10/26 03:09:35;;;;;;;0.40;0.40;;;;;;;10.35;81.36;95433.81;5011986;28;20148;-73
2023/10/26 03:12:03;;;;;;;0.30;0.30;;;;;;;10.34;81.00;95424.22;5032776;28;20033;-72
2023/10/26 03:14:31;;;;;;;0.20;0.20;;;;;;;10.33;81.30;95431.41;5011750;28;20049;-72
2023/10/26 03:16:59;;;;;;;0.20;0.20;;;;;;;10.32;80.94;95431.66;5039866;28;20068;-73
2023/10/26 03:19:26;;;;;;;0.80;0.30;;;;;;;10.33;80.13;95419.94;5033498;28;20563;-74
2023/10/26 03:21:55;;;;;;;0.20;0.20;;;;;;;10.32;80.92;95429.78;5012845;28;20049;-73
2023/10/26 03:24:24;;;;;;;0.38;0.38;;;;;;;10.26;80.32;95428.94;5028384;28;20050;-73
2023/10/26 03:26:52;;;;;;;0.20;0.20;;;;;;;10.19;80.55;95417.63;5027581;28;20493;-73
2023/10/26 03:29:21;;;;;;;0.20;0.20;;;;;;;10.20;80.45;95427.22;5022877;28;20069;-73
2023/10/26 03:31:49;;;;;;;0.22;0.22;;;;;;;10.18;80.48;95424.00;5025537;28;20132;-73
2023/10/26 03:34:16;;;;;;;0.20;0.20;;;;;;;10.15;80.45;95426.34;5027134;28;20045;-72
2023/10/26 03:36:44;;;;;;;0.17;0.17;;;;;;;10.16;80.43;95425.28;5033666;28;20047;-72
2023/10/26 03:39:12;;;;;;;0.30;0.30;;;;;;;10.14;80.62;95425.53;5031837;28;20049;-72
2023/10/26 03:41:42;;;;;;;0.15;0.15;;;;;;;10.15;80.58;95429.00;5009424;28;20046;-72
2023/10/26 03:44:10;;;;;;;0.25;0.25;;;;;;;10.17;80.74;95433.03;5032313;28;20034;-73
2023/10/26 03:46:38;;;;;;;0.20;0.20;;;;;;;10.17;80.41;95434.91;5033746;28;20041;-73
2023/10/26 03:49:07;;;;;;;0.30;0.30;;;;;;;10.19;80.78;95438.94;5034471;28;20045;-72
2023/10/26 03:51:35;;;;;;;0.22;0.22;;;;;;;10.20;80.68;95437.88;5032755;28;20144;-73
2023/10/26 03:54:03;;;;;;;0.20;0.20;;;;;;;10.21;80.83;95436.84;5027420;28;20054;-73
2023/10/26 03:56:31;;;;;;;0.20;0.20;;;;;;;10.22;80.60;95433.13;5030445;28;20037;-72
2023/10/26 03:59:00;;;;;;;0.13;0.13;;;;;;;10.23;80.33;95432.06;5035229;28;20113;-73
2023/10/26 04:01:27;;;;;;;0.10;0.10;;;;;;;10.22;80.46;95438.47;5030145;28;20510;-72
2023/10/26 04:03:55;;;;;;;0.30;0.20;;;;;;;10.20;80.93;95440.56;5006129;28;20053;-73
2023/10/26 04:06:23;;;;;;;0.20;0.20;;;;;;;10.21;81.13;95438.69;5026615;28;20488;-74
2023/10/26 04:08:56;;;;;;;0.30;0.30;;;;;;;10.16;81.10;95444.75;5024404;28;20046;-73
2023/10/26 04:11:24;;;;;;;0.30;0.30;;;;;;;10.18;81.03;95442.66;5028950;28;20061;-73
2023/10/26 04:13:53;;;;;;;0.20;0.20;;;;;;;10.16;81.29;95443.94;5025401;28;20076;-72
2023/10/26 04:16:22;;;;;;;0.20;0.20;;;;;;;10.16;81.26;95438.59;5023538;28;20048;-73
2023/10/26 04:18:50;;;;;;;0.22;0.22;;;;;;;10.11;81.05;95447.31;5027894;28;20107;-73
2023/10/26 04:21:18;;;;;;;0.10;0.10;;;;;;;10.13;81.58;95455.91;5029187;28;20042;-74
2023/10/26 04:23:46;;;;;;;0.47;0.47;;;;;;;10.10;81.33;95445.72;5032026;28;20406;-74
2023/10/26 04:26:13;;;;;;;0.52;0.30;;;;;;;10.10;81.55;95444.91;5028565;28;20045;-72
2023/10/26 04:28:41;;;;;;;0.20;0.20;;;;;;;10.06;81.61;95436.59;5025674;28;20056;-73
2023/10/26 04:31:18;;;;;;;0.20;0.20;;;;;;;10.11;81.64;95443.84;5027205;28;20056;-73
2023/10/26 04:33:47;;;;;;;0.40;0.40;;;;;;;10.06;82.10;95444.59;5026410;28;20073;-74
2023/10/26 04:36:15;;;;;;;0.25;0.25;;;;;;;10.01;82.47;95449.03;5028124;28;20034;-74
2023/10/26 04:38:43;;;;;;;0.30;0.30;;;;;;;9.96;82.24;95448.97;5026744;28;20538;-73
2023/10/26 04:41:11;;;;;;;0.73;0.73;;;;;;;9.98;82.47;95446.84;5026609;28;20498;-73
2023/10/26 04:43:38;;;;;;;0.22;0.22;;;;;;;9.99;82.53;95446.63;5024960;28;20092;-74
2023/10/26 04:46:06;;;;;;;0.30;0.30;;;;;;;10.01;81.99;95441.03;5025393;28;20128;-74
2023/10/26 04:48:34;;;;;;;0.20;0.20;;;;;;;9.97;82.17;95434.59;5030896;28;20042;-73
2023/10/26 04:51:03;;;;;;;0.22;0.22;;;;;;;9.94;82.28;95420.72;5030171;28;20060;-72
2023/10/26 04:53:31;;;;;;;0.20;0.20;;;;;;;9.92;81.79;95432.66;5029059;28;20060;-73
2023/10/26 04:55:58;;;;;;;0.25;0.25;;;;;;;9.92;82.02;95435.31;5028781;28;20045;-71
2023/10/26 04:58:26;;;;;;;0.30;0.30;;;;;;;9.87;82.03;95446.69;5031564;28;20456;-72
2023/10/26 05:00:54;;;;;;;0.20;0.20;;;;;;;9.86;81.91;95445.09;5031227;28;20124;-72
2023/10/26 05:03:22;;;;;;;0.20;0.20;;;;;;;9.88;81.29;95444.84;5029860;28;20046;-72
2023/10/26 05:05:49;;;;;;;0.22;0.22;;;;;;;9.89;81.39;95427.81;5028082;28;20053;-72
2023/10/26 05:08:18;;;;;;;0.20;0.20;;;;;;;9.89;81.24;95433.13;5025019;28;20049;-72
2023/10/26 05:10:46;;;;;;;0.20;0.20;;;;;;;9.89;81.42;95427.81;5027257;28;20042;-72
2023/10/26 05:13:14;;;;;;;0.30;0.30;;;;;;;9.89;81.86;95427.81;5013076;28;20048;-72
2023/10/26 05:15:43;;;;;;;0.00;0.00;;;;;;;9.84;81.70;95428.56;5020795;28;20038;-72
2023/10/26 05:18:11;;;;;;;0.20;0.20;;;;;;;9.87;82.02;95440.56;5012799;28;20042;-72
2023/10/26 05:20:39;;;;;;;0.15;0.15;;;;;;;9.86;81.88;95429.09;5013426;28;20046;-72
2023/10/26 05:23:08;;;;;;;0.22;0.22;;;;;;;9.83;81.65;95429.59;5012544;28;20068;-71
2023/10/26 05:25:38;;;;;;;0.10;0.10;;;;;;;9.80;81.89;95440.72;5028135;28;20045;-72
2023/10/26 05:28:05;;;;;;;0.22;0.22;;;;;;;9.77;81.84;95440.41;5023586;28;20563;-72
2023/10/26 05:30:34;;;;;;;0.25;0.25;;;;;;;9.77;82.15;95435.06;5020641;28;20152;-72
2023/10/26 05:33:01;;;;;;;0.20;0.20;;;;;;;9.72;82.14;95430.50;5012963;28;20493;-74
2023/10/26 05:35:29;;;;;;;0.30;0.30;;;;;;;9.72;82.47;95435.81;5007026;28;20052;-71
2023/10/26 05:37:57;;;;;;;0.20;0.20;;;;;;;9.73;82.03;95437.44;5030533;28;20042;-71
2023/10/26 05:40:25;;;;;;;0.22;0.22;;;;;;;9.73;82.23;95436.63;5030390;28;20052;-71
2023/10/26 05:42:54;;;;;;;0.10;0.10;;;;;;;9.73;82.29;95444.63;5028307;28;20068;-71
2023/10/26 05:45:21;;;;;;;0.20;0.20;;;;;;;9.73;82.09;95436.63;5029142;28;20040;-71
2023/10/26 05:47:53;;;;;;;0.30;0.30;;;;;;;9.72;82.00;95438.47;5029864;28;20095;-71
2023/10/26 05:50:21;;;;;;;0.30;0.30;;;;;;;9.71;82.14;95447.53;5031091;28;20054;-72
2023/10/26 05:52:48;;;;;;;0.20;0.20;;;;;;;9.72;82.13;95451.81;5030501;28;20072;-72
2023/10/26 05:55:16;;;;;;;0.40;0.40;;;;;;;9.71;81.96;95452.84;5029808;28;20056;-72
2023/10/26 05:57:44;;;;;;;0.30;0.30;;;;;;;9.74;81.85;95454.22;5009770;28;20148;-72
2023/10/26 06:00:14;;;;;;;0.32;0.32;;;;;;;9.76;81.84;95449.47;5028287;28;20524;-72
2023/10/26 06:02:42;;;;;;;0.32;0.32;;;;;;;9.76;81.38;95442.25;5026482;28;20099;-72
2023/10/26 06:05:10;;;;;;;0.20;0.20;;;;;;;9.73;81.68;95456.09;5024495;28;20420;-71
2023/10/26 06:07:38;;;;;;;0.25;0.25;;;;;;;9.70;81.55;95450.41;5026300;28;20037;-72
2023/10/26 06:10:09;;;;;;;0.17;0.17;;;;;;;9.69;82.03;95459.47;5027970;28;20045;-72
2023/10/26 06:12:37;;;;;;;0.30;0.30;;;;;;;9.67;82.30;95459.69;5027105;28;20043;-71
2023/10/26 06:15:06;;;;;;;0.22;0.22;;;;;;;9.68;81.95;95458.66;5026869;28;20043;-71
2023/10/26 06:17:35;;;;;;;0.28;0.28;;;;;;;9.70;82.29;95469.06;5029101;28;20049;-71
2023/10/26 06:20:03;;;;;;;0.40;0.40;;;;;;;9.75;81.89;95471.84;5028307;28;20152;-71
2023/10/26 06:22:31;;;;;;;0.38;0.38;;;;;;;9.77;81.64;95477.69;5027876;28;20041;-71
2023/10/26 06:24:59;;;;;;;0.38;0.22;;;;;;;9.79;81.51;95478.28;5029112;28;20523;-71
2023/10/26 06:27:26;;;;;;;0.20;0.20;;;;;;;9.77;81.50;95481.16;5029689;28;20044;-71
2023/10/26 06:29:54;;;;;;;0.30;0.30;;;;;;;9.78;81.49;95484.66;5011082;28;20651;-71
2023/10/26 06:32:22;;;;;;;0.30;0.30;;;;;;;9.83;81.49;95480.22;5027854;28;20069;-71
2023/10/26 06:34:52;;;;;;;0.30;0.30;;;;;;;9.84;81.28;95484.50;5028152;28;20045;-71
2023/10/26 06:37:19;;;;;;;0.20;0.20;;;;;;;9.84;81.30;95483.69;5027172;28;20048;-73
2023/10/26 06:39:47;;;;;;;0.10;0.10;;;;;;;9.83;81.53;95485.56;5028943;28;20428;-72
2023/10/26 06:42:15;;;;;;;0.30;0.30;;;;;;;9.84;81.38;95476.50;5026432;28;20136;-73
2023/10/26 06:44:43;;;;;;;0.22;0.22;;;;;;;9.87;81.27;95489.31;5028971;28;20469;-76
2023/10/26 06:47:11;;;;;;;0.25;0.25;;;;;;;9.86;81.58;95487.72;5028630;28;20069;-76
2023/10/26 06:49:41;;;;;;;0.20;0.20;;;;;;;9.87;80.92;95497.31;5029369;28;20051;-72
2023/10/26 06:52:10;;;;;;;0.32;0.32;;;;;;;9.85;81.05;95498.63;5026403;28;20472;-74
2023/10/26 06:54:38;;;;;;;0.20;0.20;;;;;;;9.87;81.20;95494.66;5032718;28;20069;-74
2023/10/26 06:57:07;;;;;;;0.30;0.30;;;;;;;9.92;81.11;95502.75;5014083;28;20140;-75
2023/10/26 06:59:35;;;;;;;0.30;0.30;;;;;;;9.91;80.97;95503.78;5023877;28;20045;-75
2023/10/26 07:02:03;;;;;;;0.20;0.20;;;;;;;9.92;80.90;95504.59;5028165;28;20124;-75
2023/10/26 07:04:39;;;;;;;0.25;0.25;;;;;;;9.92;80.39;95508.06;5021725;28;20053;-75
2023/10/26 07:07:07;;;;;;;0.30;0.30;;;;;;;9.94;80.78;95518.50;5025754;28;20619;-76
2023/10/26 07:09:37;;;;;;;0.20;0.20;;;;;;;9.93;81.04;95509.69;5028208;28;20056;-74
2023/10/26 07:12:06;;;;;;;0.20;0.20;;;;;;;9.95;80.65;95517.44;5025630;28;20059;-73
2023/10/26 07:14:34;;;;;;;0.30;0.30;;;;;;;9.97;80.10;95525.97;5022159;28;20057;-75
2023/10/26 07:17:02;;;;;;;0.63;0.63;;;;;;;9.94;80.13;95523.81;5029686;28;20421;-74
2023/10/26 07:19:30;;;;;;;0.20;0.20;;;;;;;9.96;80.31;95528.91;5031044;28;20045;-74
2023/10/26 07:21:58;;;;;;;0.30;0.30;;;;;;;9.94;80.40;95524.63;5015657;28;20047;-74
2023/10/26 07:24:25;;;;;;;0.30;0.30;;;;;;;9.94;80.57;95532.63;5023700;28;20073;-74
2023/10/26 07:26:54;;;;;;;0.30;0.30;;;;;;;9.99;80.52;95528.41;5023840;28;20048;-74
2023/10/26 07:29:22;;;;;;;0.40;0.40;;;;;;;9.96;80.68;95532.41;5026067;28;20044;-73
2023/10/26 07:31:50;;;;;;;0.28;0.28;;;;;;;10.00;80.53;95535.38;5026572;28;20156;-73
2023/10/26 07:34:18;;;;;;;0.40;0.40;;;;;;;9.96;80.47;95548.38;5029013;28;20068;-73
2023/10/26 07:36:46;;;;;;;0.32;0.32;;;;;;;9.94;80.95;95545.94;5035028;28;20053;-73
2023/10/26 07:39:14;;;;;;;0.20;0.20;;;;;;;9.96;81.13;95548.38;5041515;28;20037;-73
2023/10/26 07:42:04;;;;;;;0.20;0.20;;;;;;;9.97;81.09;95536.66;5030268;28;20063;-73
2023/10/26 07:44:37;;;;;;;0.22;0.22;;;;;;;9.99;80.63;95537.22;5031893;28;20049;-74
2023/10/26 07:47:08;;;;;;;0.30;0.30;;;;;;;9.99;80.75;95542.53;5027493;28;20063;-74
2023/10/26 07:49:36;;;;;;;0.30;0.30;;;;;;;9.98;80.96;95548.94;5027554;28;20169;-74
2023/10/26 07:52:05;;;;;;;0.20;0.20;;;;;;;9.98;80.48;95537.44;5026520;28;20038;-74
2023/10/26 07:54:32;;;;;;;0.28;0.28;;;;;;;9.94;80.87;95545.94;5027380;28;20060;-73
2023/10/26 07:57:00;;;;;;;0.38;0.38;;;;;;;9.97;81.00;95557.19;5027069;28;20461;-73
2023/10/26 07:59:30;;;;;;;0.28;0.28;;;;;;;9.98;80.98;95559.59;5026245;28;20044;-74
2023/10/26 08:01:57;;;;;;;0.25;0.25;;;;;;;9.95;81.06;95560.09;5026746;28;20051;-74
2023/10/26 08:04:27;;;;;;;0.30;0.30;;;;;;;9.95;81.12;95562.75;5026931;28;21463;-74
2023/10/26 08:06:55;;;;;;;0.30;0.30;;;;;;;9.93;81.26;95555.00;5024820;28;20132;-74
2023/10/26 08:09:23;;;;;;;0.30;0.30;;;;;;;9.94;81.40;95564.59;5022296;28;20042;-74
2023/10/26 08:11:51;;;;;;;0.30;0.30;;;;;;;9.94;81.22;95558.47;5027351;28;20874;-74
2023/10/26 08:14:19;;;;;;;0.30;0.30;;;;;;;9.95;81.58;95557.44;5024102;28;20034;-73
2023/10/26 08:17:08;;;;;;;0.30;0.30;;;;;;;9.97;81.70;95559.84;5023839;28;20055;-74
2023/10/26 08:19:36;;;;;;;0.30;0.30;;;;;;;9.94;80.86;95558.47;5025016;28;20121;-74
2023/10/26 08:22:04;;;;;;;0.30;0.30;;;;;;;9.94;80.98;95563.78;5022023;28;20045;-74
2023/10/26 08:24:32;;;;;;;0.38;0.32;;;;;;;9.99;80.96;95565.72;5009566;28;20141;-74
2023/10/26 08:27:00;;;;;;;0.20;0.20;;;;;;;9.98;80.68;95564.91;5009479;28;20084;-74
2023/10/26 08:29:28;;;;;;;0.20;0.20;;;;;;;9.96;80.65;95569.69;5030152;28;20041;-74
2023/10/26 08:31:56;;;;;;;0.22;0.22;;;;;;;9.99;80.50;95571.06;5026842;28;20033;-74
2023/10/26 08:34:27;;;;;;;0.30;0.30;;;;;;;10.00;79.95;95578.00;5030002;28;20103;-73
2023/10/26 08:36:54;;;;;;;0.30;0.30;;;;;;;10.02;79.80;95582.06;5010952;28;20504;-74
2023/10/26 08:39:39;;;;;;;;;;;;;;;10.01;79.85;95575.09;5028113;28;20442;-74
2023/10/26 08:42:08;;;;;;;0.20;0.20;;;;;;;10.00;79.97;95570.81;5027653;28;19945;-73
2023/10/26 08:44:36;;;;;;;0.30;0.30;;;;;;;10.03;79.91;95567.69;5031347;28;20068;-74
2023/10/26 08:47:05;;;;;;;0.75;0.75;;;;;;;10.02;79.95;95582.06;5033230;28;20696;-75
2023/10/26 08:49:34;;;;;;;0.20;0.20;;;;;;;10.04;79.25;95577.28;5027097;28;20037;-75
2023/10/26 08:52:04;;;;;;;0.30;0.30;;;;;;;10.09;79.40;95581.88;5031751;28;20060;-75
2023/10/26 08:54:32;;;;;;;0.25;0.25;;;;;;;10.11;79.08;95585.94;5027913;28;20060;-75
2023/10/26 08:57:07;;;;;;;0.30;0.30;;;;;;;10.09;78.79;95584.56;5019414;28;20152;-74
2023/10/26 08:59:35;;;;;;;0.20;0.20;;;;;;;10.07;78.14;95584.78;5031075;28;20448;-75
2023/10/26 09:02:04;;;;;;;0.45;0.45;;;;;;;9.98;78.45;95580.91;5030209;28;20124;-75
2023/10/26 09:04:33;;;;;;;0.30;0.30;;;;;;;10.05;78.39;95564.78;5030173;28;20048;-74
2023/10/26 09:07:01;;;;;;;0.22;0.22;;;;;;;10.06;78.29;95582.38;5028923;28;20052;-74
2023/10/26 09:09:43;;;;;;;0.22;0.22;;;;;;;10.07;78.12;95574.13;5039058;28;20117;-74
2023/10/26 09:12:13;;;;;;;0.30;0.30;;;;;;;10.10;78.02;95588.84;5033053;28;20053;-75
2023/10/26 09:14:40;;;;;;;0.35;0.35;;;;;;;10.12;78.19;95582.22;5035758;28;20053;-74
2023/10/26 09:17:25;;;;;;;0.40;0.40;;;;;;;10.12;77.50;95578.75;5042241;28;20041;-74
2023/10/26 09:19:55;;;;;;;0.30;0.30;;;;;;;10.14;77.49;95573.97;5039291;28;20109;-73
2023/10/26 09:22:36;;;;;;;0.20;0.20;;;;;;;10.20;77.72;95573.84;5030449;28;20144;-74
2023/10/26 09:25:08;;;;;;;0.30;0.30;;;;;;;10.27;77.91;95571.03;5030233;28;20060;-75
2023/10/26 09:27:36;;;;;;;0.30;0.30;;;;;;;10.29;77.37;95568.91;5024540;28;20045;-75
2023/10/26 09:30:06;;;;;;;0.38;0.38;;;;;;;10.27;77.81;95566.53;5029247;28;20056;-75
2023/10/26 09:32:38;;;;;;;0.20;0.20;;;;;;;10.28;77.33;95577.97;5025205;28;20141;-75
2023/10/26 09:35:10;;;;;;;0.22;0.22;;;;;;;10.28;76.94;95577.97;5026984;28;20748;-76
2023/10/26 09:37:50;;;;;;;0.40;0.40;;;;;;;10.26;76.74;95574.75;5027178;28;20045;-75
2023/10/26 09:40:19;;;;;;;0.38;0.38;;;;;;;10.28;77.34;95577.97;5026460;28;20042;-74
2023/10/26 09:42:48;;;;;;;0.30;0.30;;;;;;;10.30;77.12;95575.88;5026521;28;20100;-76
2023/10/26 09:45:17;;;;;;;0.20;0.20;;;;;;;10.35;77.08;95569.81;5026779;28;20103;-74
2023/10/26 09:47:45;;;;;;;0.30;0.30;;;;;;;10.42;76.15;95576.59;5023708;28;20041;-76
2023/10/26 09:50:15;;;;;;;0.50;0.50;;;;;;;10.41;75.89;95569.66;5025734;28;20424;-75
2023/10/26 09:52:44;;;;;;;0.25;0.25;;;;;;;10.40;75.76;95578.69;5023634;28;20045;-75
2023/10/26 09:55:12;;;;;;;0.20;0.20;;;;;;;10.45;75.88;95581.44;5013376;28;20049;-74
2023/10/26 09:57:45;;;;;;;0.20;0.20;;;;;;;10.47;74.62;95576.69;5010520;28;20044;-75
2023/10/26 10:00:14;;;;;;;0.30;0.30;;;;;;;10.50;74.83;95572.69;5022984;28;20038;-75
2023/10/26 10:02:45;;;;;;;0.30;0.30;;;;;;;10.52;74.75;95571.41;5011618;28;20401;-76
2023/10/26 10:05:39;;;;;;;0.50;0.50;;;;;;;10.71;74.72;95560.47;5011291;28;20421;-74
2023/10/26 10:08:07;;;;;;;0.30;0.30;;;;;;;10.83;73.73;95561.97;5016588;28;20117;-74
2023/10/26 10:10:35;;;;;;;0.30;0.30;;;;;;;10.89;72.61;95565.53;5011229;28;20069;-75
2023/10/26 10:13:04;;;;;;;0.30;0.30;;;;;;;10.98;72.63;95572.06;5010179;28;20141;-74
2023/10/26 10:15:38;;;;;;;0.22;0.22;;;;;;;11.06;72.22;95571.63;5020872;28;20095;-74
2023/10/26 10:18:08;;;;;;;0.20;0.20;;;;;;;11.00;71.65;95573.41;5029496;28;20598;-75
2023/10/26 10:20:37;;;;;;;0.30;0.30;;;;;;;11.02;71.93;95575.84;5029813;28;20124;-74
2023/10/26 10:23:06;;;;;;;0.32;0.32;;;;;;;11.09;71.67;95575.69;5029639;28;20085;-75
2023/10/26 10:26:00;;;;;;;0.20;0.20;;;;;;;10.96;71.24;95580.31;5029758;28;20052;-75
2023/10/26 10:28:54;;;;;;;;;;;;;;;11.04;71.83;95595.09;5029546;28;20045;-72
2023/10/26 10:31:23;;;;;;;0.45;0.45;;;;;;;11.06;71.97;95590.31;5029515;28;20335;-75
2023/10/26 10:34:02;;;;;;;0.30;0.30;;;;;;;11.12;71.38;95594.66;5030214;28;20462;-73
2023/10/26 10:36:30;;;;;;;0.20;0.20;;;;;;;11.27;71.53;95594.88;5029233;28;20131;-74
2023/10/26 10:39:23;;;;;;;0.38;0.38;;;;;;;11.45;70.47;95585.72;5028450;28;20037;-74
2023/10/26 10:41:51;;;;;;;0.20;0.20;;;;;;;11.53;69.10;95581.78;5027756;28;20053;-73
2023/10/26 10:44:19;;;;;;;0.20;0.20;;;;;;;11.60;69.47;95579.75;5027247;28;20064;-74
2023/10/26 10:46:50;;;;;;;0.30;0.30;;;;;;;11.52;67.59;95567.66;5026388;28;20041;-74
2023/10/26 10:49:25;;;;;;;0.30;0.30;;;;;;;11.55;67.95;95574.34;5028625;28;20507;-73
2023/10/26 10:51:53;;;;;;;0.25;0.25;;;;;;;11.58;67.63;95580.00;5026076;28;20057;-73
2023/10/26 10:54:23;;;;;;;0.30;0.30;;;;;;;11.62;67.65;95583.00;5026207;28;20107;-73
2023/10/26 10:57:07;;;;;;;0.30;0.30;;;;;;;11.64;67.50;95580.84;5024110;28;20495;-74
2023/10/26 10:59:35;;;;;;;0.20;0.20;;;;;;;11.61;68.04;95589.38;5026800;28;20120;-73
2023/10/26 11:02:09;;;;;;;0.30;0.30;;;;;;;11.50;67.80;95576.97;5023012;28;20124;-74
2023/10/26 11:04:51;;;;;;;0.20;0.20;;;;;;;11.47;68.06;95578.28;5026294;28;20042;-73
2023/10/26 11:07:27;;;;;;;0.30;0.30;;;;;;;11.52;68.30;95583.69;5022469;28;20046;-73
2023/10/26 11:10:00;;;;;;;0.28;0.28;;;;;;;11.51;68.47;95578.59;5018826;28;20049;-73
2023/10/26 11:12:28;;;;;;;0.28;0.28;;;;;;;11.51;68.60;95576.72;5023062;28;20057;-73
2023/10/26 11:14:57;;;;;;;0.30;0.30;;;;;;;11.47;68.33;95577.47;5021662;28;20046;-75
2023/10/26 11:17:25;;;;;;;0.20;0.20;;;;;;;11.40;68.80;95575.00;5028841;28;20052;-74
2023/10/26 11:19:54;;;;;;;0.38;0.38;;;;;;;11.45;69.03;95574.22;5025106;28;20042;-73
2023/10/26 11:22:22;;;;;;;0.35;0.35;;;;;;;11.53;69.15;95569.25;5023377;28;20041;-73
2023/10/26 11:24:50;;;;;;;0.25;0.25;;;;;;;11.53;69.12;95571.09;5028341;28;20516;-74
2023/10/26 11:27:20;;;;;;;0.30;0.30;;;;;;;11.38;69.26;95577.91;5029084;28;20042;-77
2023/10/26 11:30:03;;;;;;;0.30;0.30;;;;;;;11.38;69.96;95585.94;5024862;28;20080;-74
2023/10/26 11:32:31;;;;;;;0.20;0.20;;;;;;;11.39;70.01;95595.56;5019538;28;20049;-74
2023/10/26 11:35:06;;;;;;;0.20;0.20;;;;;;;11.47;69.90;95582.81;5026766;28;20045;-74
2023/10/26 11:37:34;;;;;;;0.20;0.20;;;;;;;11.50;69.73;95579.66;5027969;28;20041;-73
2023/10/26 11:40:03;;;;;;;0.30;0.30;;;;;;;11.45;69.62;95590.25;5025787;28;20041;-76
2023/10/26 11:42:51;;;;;;;0.30;0.30;;;;;;;11.56;69.54;95587.47;5025242;28;20103;-73
2023/10/26 11:45:20;;;;;;;0.17;0.17;;;;;;;11.56;69.22;95597.34;5025632;28;20046;-74
2023/10/26 11:47:50;;;;;;;0.65;0.65;;;;;;;11.67;69.35;95593.72;5025980;28;20412;-73